createdAt,value
2019-03-21T00:02:12.703Z,9.90
2019-03-21T00:05:02.305Z,11.80
2019-03-21T00:07:51.327Z,9.45
2019-03-21T00:11:35.868Z,10.93
2019-03-21T00:15:09.472Z,10.32
2019-03-21T00:18:04.626Z,12.50
2019-03-21T00:20:54.324Z,7.65
2019-03-21T00:23:43.441Z,11.18
2019-03-21T00:26:32.802Z,10.10
2019-03-21T00:29:21.675Z,14.63
2019-03-21T00:32:11.079Z,16.67
2019-03-21T00:35:00.585Z,14.90
2019-03-21T00:37:50.414Z,13.65
2019-03-21T00:40:43.874Z,12.75
2019-03-21T00:43:32.591Z,12.20
2019-03-21T00:46:22.137Z,14.10
2019-03-21T00:49:11.437Z,12.20
2019-03-21T00:52:00.096Z,13.25
2019-03-21T00:54:49.331Z,10.23
2019-03-21T00:57:38.716Z,15.78
2019-03-21T01:00:34.068Z,13.70
2019-03-21T01:03:22.807Z,8.78
2019-03-21T01:06:12.095Z,10.18
2019-03-21T01:09:01.442Z,10.25
2019-03-21T01:11:50.888Z,11.22
2019-03-21T01:14:39.585Z,16.10
2019-03-21T01:17:29.049Z,11.63
2019-03-21T01:20:18.128Z,10.75
2019-03-21T01:23:07.679Z,13.72
2019-03-21T01:25:57.853Z,8.05
2019-03-21T01:28:47.195Z,7.70
2019-03-21T01:31:36.691Z,9.53
2019-03-21T01:34:25.556Z,7.80
2019-03-21T01:37:15.195Z,10.35
2019-03-21T01:40:04.345Z,10.75
2019-03-21T01:42:53.519Z,11.45
2019-03-21T01:45:42.347Z,9.68
2019-03-21T01:48:31.237Z,9.73
2019-03-21T01:51:20.640Z,9.40
2019-03-21T01:54:10.845Z,11.03
2019-03-21T01:57:00.327Z,12.93
2019-03-21T01:59:50.621Z,11.12
2019-03-21T02:02:39.922Z,10.17
2019-03-21T02:05:28.565Z,12.37
2019-03-21T02:08:17.316Z,13.45
2019-03-21T02:11:06.716Z,14.03
2019-03-21T02:13:55.587Z,11.57
2019-03-21T02:16:44.425Z,8.97
2019-03-21T02:19:33.387Z,12.33
2019-03-21T02:22:23.016Z,8.90
2019-03-21T02:25:18.163Z,8.20
2019-03-21T02:28:06.883Z,9.83
2019-03-21T02:30:56.053Z,7.70
2019-03-21T02:33:44.884Z,9.80
2019-03-21T02:36:33.955Z,11.43
2019-03-21T02:39:22.732Z,15.72
2019-03-21T02:42:11.985Z,10.28
2019-03-21T02:45:08.459Z,7.97
2019-03-21T02:47:51.655Z,12.03
2019-03-21T02:50:40.574Z,13.22
2019-03-21T02:53:30.336Z,9.00
2019-03-21T02:56:20.056Z,9.95
2019-03-21T02:59:09.274Z,7.87
2019-03-21T03:01:58.916Z,9.00
2019-03-21T03:04:47.977Z,8.95
2019-03-21T03:07:37.540Z,8.43
2019-03-21T03:10:39.072Z,7.55
2019-03-21T03:13:28.693Z,10.30
2019-03-21T03:16:17.546Z,7.90
2019-03-21T03:19:07.068Z,9.23
2019-03-21T03:21:56.124Z,6.92
2019-03-21T03:24:44.976Z,7.45
2019-03-21T03:27:34.206Z,9.55
2019-03-21T03:30:24.349Z,10.35
2019-03-21T03:33:13.392Z,6.65
2019-03-21T03:36:02.445Z,7.70
2019-03-21T03:38:51.554Z,6.60
2019-03-21T03:41:40.869Z,10.08
2019-03-21T03:44:29.466Z,8.50
2019-03-21T03:47:18.856Z,8.30
2019-03-21T03:50:08.738Z,8.63
2019-03-21T03:52:57.317Z,8.63
2019-03-21T03:55:47.003Z,11.88
2019-03-21T03:58:36.801Z,8.70
2019-03-21T04:01:25.821Z,10.93
2019-03-21T04:04:15.751Z,8.60
2019-03-21T04:07:05.094Z,10.37
2019-03-21T04:09:54.545Z,7.25
2019-03-21T04:12:43.993Z,9.20
2019-03-21T04:15:33.134Z,12.30
2019-03-21T04:18:22.487Z,6.92
2019-03-21T04:21:11.696Z,9.65
2019-03-21T04:24:00.898Z,9.53
2019-03-21T04:26:49.885Z,9.78
2019-03-21T04:29:38.579Z,7.50
2019-03-21T04:32:28.390Z,9.20
2019-03-21T04:35:18.045Z,8.78
2019-03-21T04:38:07.409Z,8.98
2019-03-21T04:40:56.703Z,13.05
2019-03-21T04:43:46.216Z,7.60
2019-03-21T04:46:34.859Z,7.40
2019-03-21T04:49:24.758Z,10.72
2019-03-21T04:52:14.428Z,7.60
2019-03-21T04:55:02.974Z,8.45
2019-03-21T04:57:51.589Z,8.68
2019-03-21T05:00:40.861Z,7.12
2019-03-21T05:03:30.316Z,7.55
2019-03-21T05:06:19.333Z,11.03
2019-03-21T05:09:11.749Z,7.03
2019-03-21T05:12:01.442Z,10.18
2019-03-21T05:14:50.693Z,11.33
2019-03-21T05:17:39.321Z,7.63
2019-03-21T05:20:29.275Z,6.97
2019-03-21T05:23:18.671Z,9.65
2019-03-21T05:26:18.392Z,8.28
2019-03-21T05:29:07.412Z,9.00
2019-03-21T05:31:56.154Z,11.10
2019-03-21T05:34:45.057Z,10.40
2019-03-21T05:37:34.179Z,8.85
2019-03-21T05:40:22.811Z,12.07
2019-03-21T05:43:18.212Z,15.20
2019-03-21T05:46:07.561Z,9.50
2019-03-21T05:48:57.131Z,8.83
2019-03-21T05:51:46.560Z,9.25
2019-03-21T05:54:35.227Z,10.32
2019-03-21T05:57:23.873Z,7.20
2019-03-21T06:00:19.377Z,7.83
2019-03-21T06:03:16.106Z,8.93
2019-03-21T06:06:12.572Z,8.65
2019-03-21T06:09:02.346Z,7.60
2019-03-21T06:11:55.577Z,8.28
2019-03-21T06:14:49.118Z,10.43
2019-03-21T06:17:37.908Z,7.30
2019-03-21T06:20:41.593Z,8.70
2019-03-21T06:24:15.094Z,9.83
2019-03-21T06:27:14.881Z,8.70
2019-03-21T06:30:04.611Z,10.15
2019-03-21T06:32:53.880Z,10.45
2019-03-21T06:35:43.018Z,11.75
2019-03-21T06:38:32.318Z,7.55
2019-03-21T06:41:21.492Z,8.53
2019-03-21T06:44:10.579Z,8.28
2019-03-21T06:46:59.645Z,9.08
2019-03-21T06:49:48.528Z,11.65
2019-03-21T06:52:37.313Z,8.43
2019-03-21T06:55:26.732Z,8.45
2019-03-21T06:58:16.291Z,10.00
2019-03-21T07:01:05.267Z,8.90
2019-03-21T07:03:54.590Z,8.03
2019-03-21T07:06:43.355Z,7.53
2019-03-21T07:09:32.649Z,10.03
2019-03-21T07:12:21.834Z,9.08
2019-03-21T07:15:11.977Z,13.18
2019-03-21T07:18:00.805Z,9.93
2019-03-21T07:20:49.889Z,11.83
2019-03-21T07:23:39.096Z,8.68
2019-03-21T07:26:28.448Z,8.00
2019-03-21T07:29:18.191Z,6.30
2019-03-21T07:32:07.108Z,8.97
2019-03-21T07:34:56.296Z,8.18
2019-03-21T07:37:45.885Z,5.90
2019-03-21T07:40:34.852Z,11.05
2019-03-21T07:43:23.809Z,7.12
2019-03-21T07:46:13.256Z,9.40
2019-03-21T07:49:02.639Z,7.08
2019-03-21T07:51:51.334Z,8.18
2019-03-21T07:54:40.281Z,5.08
2019-03-21T07:57:29.681Z,7.70
2019-03-21T08:00:19.892Z,6.15
2019-03-21T08:03:08.987Z,6.33
2019-03-21T08:05:58.211Z,6.08
2019-03-21T08:08:47.817Z,6.12
2019-03-21T08:11:37.501Z,6.12
2019-03-21T08:14:26.622Z,4.25
2019-03-21T08:17:16.730Z,8.00
2019-03-21T08:20:07.976Z,7.85
2019-03-21T08:22:56.824Z,13.30
2019-03-21T08:25:45.774Z,6.92
2019-03-21T08:28:34.781Z,8.85
2019-03-21T08:31:24.279Z,6.47
2019-03-21T08:34:13.553Z,7.95
2019-03-21T08:37:02.122Z,3.00
2019-03-21T08:39:51.176Z,5.67
2019-03-21T08:42:40.412Z,3.40
2019-03-21T08:45:31.000Z,6.87
2019-03-21T08:48:20.231Z,7.35
2019-03-21T08:51:09.591Z,5.92
2019-03-21T08:53:58.353Z,6.35
2019-03-21T08:56:48.034Z,6.15
2019-03-21T08:59:37.222Z,5.80
2019-03-21T09:02:25.814Z,8.38
2019-03-21T09:05:15.277Z,5.20
2019-03-21T09:08:04.329Z,7.78
2019-03-21T09:10:53.808Z,8.35
2019-03-21T09:13:43.029Z,5.75
2019-03-21T09:16:32.099Z,5.90
2019-03-21T09:19:20.756Z,8.70
2019-03-21T09:22:10.114Z,10.90
2019-03-21T09:24:59.691Z,5.70
2019-03-21T09:27:48.616Z,5.05
2019-03-21T09:30:37.845Z,5.80
2019-03-21T09:33:27.143Z,5.22
2019-03-21T09:36:16.470Z,5.10
2019-03-21T09:39:07.469Z,7.03
2019-03-21T09:41:56.585Z,7.97
2019-03-21T09:44:45.468Z,5.20
2019-03-21T09:47:34.381Z,5.83
2019-03-21T09:50:28.435Z,5.80
2019-03-21T09:53:17.298Z,6.47
2019-03-21T09:56:06.322Z,7.92
2019-03-21T09:58:55.872Z,6.90
2019-03-21T10:01:45.484Z,5.10
2019-03-21T10:04:34.508Z,4.72
2019-03-21T10:07:24.074Z,6.42
2019-03-21T10:10:16.248Z,6.92
2019-03-21T10:13:06.096Z,7.05
2019-03-21T10:15:55.643Z,5.30
2019-03-21T10:18:45.187Z,5.08
2019-03-21T10:21:42.759Z,4.80
2019-03-21T10:24:24.650Z,6.47
2019-03-21T10:27:14.193Z,7.72
2019-03-21T10:30:03.451Z,6.30
2019-03-21T10:32:53.899Z,5.05
2019-03-21T10:35:43.719Z,16.93
2019-03-21T10:38:32.825Z,12.03
2019-03-21T10:41:22.076Z,7.37
2019-03-21T10:44:11.288Z,8.25
2019-03-21T10:47:00.669Z,6.03
2019-03-21T10:49:50.185Z,5.70
2019-03-21T10:52:40.000Z,5.72
2019-03-21T10:55:29.153Z,6.27
2019-03-21T10:58:18.334Z,8.60
2019-03-21T11:01:07.153Z,4.50
2019-03-21T11:03:55.992Z,9.00
2019-03-21T11:06:45.450Z,6.45
2019-03-21T11:09:34.695Z,6.50
2019-03-21T11:12:23.945Z,7.90
2019-03-21T11:15:13.182Z,8.83
2019-03-21T11:18:02.761Z,5.90
2019-03-21T11:20:53.223Z,9.77
2019-03-21T11:23:42.073Z,7.00
2019-03-21T11:26:31.447Z,4.57
2019-03-21T11:29:21.072Z,6.30
2019-03-21T11:32:10.816Z,5.50
2019-03-21T11:35:00.478Z,5.73
2019-03-21T11:37:49.287Z,5.70
2019-03-21T11:40:38.655Z,7.63
2019-03-21T11:43:27.537Z,6.00
2019-03-21T11:46:17.168Z,8.00
2019-03-21T11:49:06.598Z,5.60
2019-03-21T11:51:55.474Z,6.60
2019-03-21T11:54:44.161Z,5.47
2019-03-21T11:57:33.015Z,8.80
2019-03-21T12:00:21.740Z,7.40
2019-03-21T12:03:10.881Z,7.47
2019-03-21T12:06:00.096Z,7.13
2019-03-21T12:08:49.474Z,5.70
2019-03-21T12:11:39.004Z,8.70
2019-03-21T12:14:27.988Z,7.30
2019-03-21T12:17:17.038Z,8.83
2019-03-21T12:20:07.109Z,8.53
2019-03-21T12:22:56.186Z,8.30
2019-03-21T12:25:45.482Z,8.30
2019-03-21T12:28:34.408Z,8.17
2019-03-21T12:31:23.413Z,6.80
2019-03-21T12:34:13.236Z,7.47
2019-03-21T12:37:02.171Z,8.10
2019-03-21T12:39:51.496Z,7.23
2019-03-21T12:42:40.895Z,7.07
2019-03-21T12:45:29.955Z,5.13
2019-03-21T12:48:19.300Z,7.33
2019-03-21T12:51:08.814Z,7.37
2019-03-21T12:53:58.331Z,5.20
2019-03-21T12:56:47.068Z,7.03
2019-03-21T12:59:35.851Z,5.80
2019-03-21T13:02:32.241Z,7.70
2019-03-21T13:05:19.052Z,5.03
2019-03-21T13:08:08.333Z,5.23
2019-03-21T13:10:57.520Z,7.00
2019-03-21T13:13:46.885Z,7.70
2019-03-21T13:16:36.275Z,7.50
2019-03-21T13:19:25.742Z,8.10
2019-03-21T13:22:15.651Z,8.30
2019-03-21T13:25:05.800Z,5.73
2019-03-21T13:27:55.132Z,5.83
2019-03-21T13:30:44.674Z,6.93
2019-03-21T13:33:33.990Z,9.63
2019-03-21T13:36:23.198Z,7.00
2019-03-21T13:39:12.473Z,7.13
2019-03-21T13:42:01.837Z,10.07
2019-03-21T13:44:50.956Z,7.63
2019-03-21T13:47:40.409Z,10.83
2019-03-21T13:50:30.326Z,5.67
2019-03-21T13:53:19.378Z,5.63
2019-03-21T13:56:08.617Z,6.00
2019-03-21T13:58:57.907Z,6.53
2019-03-21T14:01:47.515Z,8.30
2019-03-21T14:04:36.927Z,4.60
2019-03-21T14:07:26.524Z,6.93
2019-03-21T14:10:15.456Z,5.43
2019-03-21T14:13:05.011Z,5.63
2019-03-21T14:15:54.392Z,6.70
2019-03-21T14:18:43.308Z,6.97
2019-03-21T14:21:32.041Z,9.50
2019-03-21T14:24:21.400Z,11.10
2019-03-21T14:27:10.387Z,7.62
2019-03-21T14:30:01.834Z,8.28
2019-03-21T14:32:49.477Z,6.73
2019-03-21T14:35:38.755Z,7.50
2019-03-21T14:38:27.492Z,8.85
2019-03-21T14:41:17.048Z,8.18
2019-03-21T14:44:07.206Z,6.65
2019-03-21T14:46:56.375Z,5.83
2019-03-21T14:49:45.915Z,9.70
2019-03-21T14:52:36.484Z,5.97
2019-03-21T14:55:25.949Z,5.30
2019-03-21T14:58:15.669Z,6.27
2019-03-21T15:01:05.058Z,8.67
2019-03-21T15:03:54.618Z,5.23
2019-03-21T15:06:43.552Z,6.13
2019-03-21T15:09:32.801Z,6.63
2019-03-21T15:12:22.204Z,6.60
2019-03-21T15:15:12.433Z,7.17
2019-03-21T15:18:01.406Z,8.13
2019-03-21T15:20:50.815Z,6.53
2019-03-21T15:23:41.161Z,6.20
2019-03-21T15:26:30.347Z,5.93
2019-03-21T15:29:19.067Z,9.77
2019-03-21T15:32:08.018Z,7.00
2019-03-21T15:34:57.383Z,7.20
2019-03-21T15:37:46.347Z,10.17
2019-03-21T15:40:35.313Z,6.60
2019-03-21T15:43:24.454Z,6.67
2019-03-21T15:46:13.698Z,6.80
2019-03-21T15:49:03.157Z,6.03
2019-03-21T15:51:52.286Z,5.67
2019-03-21T15:54:41.759Z,5.73
2019-03-21T15:57:31.974Z,12.43
2019-03-21T16:00:29.688Z,7.10
2019-03-21T16:03:18.578Z,5.40
2019-03-21T16:06:08.065Z,7.10
2019-03-21T16:08:57.489Z,7.43
2019-03-21T16:11:46.893Z,7.43
2019-03-21T16:14:35.916Z,6.40
2019-03-21T16:17:25.671Z,8.60
2019-03-21T16:20:14.587Z,6.90
2019-03-21T16:23:03.228Z,4.93
2019-03-21T16:25:53.045Z,7.83
2019-03-21T16:28:41.604Z,8.30
2019-03-21T16:31:30.684Z,7.30
2019-03-21T16:34:20.453Z,6.50
2019-03-21T16:37:12.034Z,9.53
2019-03-21T16:40:00.645Z,5.53
2019-03-21T16:42:50.263Z,5.57
2019-03-21T16:45:39.759Z,5.20
2019-03-21T16:48:28.895Z,7.93
2019-03-21T16:51:18.316Z,5.83
2019-03-21T16:54:16.497Z,9.10
2019-03-21T16:56:58.006Z,6.33
2019-03-21T16:59:47.360Z,7.70
2019-03-21T17:02:39.420Z,6.23
2019-03-21T17:05:29.112Z,7.40
2019-03-21T17:08:18.137Z,5.80
2019-03-21T17:11:07.445Z,6.60
2019-03-21T17:13:56.256Z,8.17
2019-03-21T17:16:45.697Z,7.83
2019-03-21T17:19:35.376Z,8.50
2019-03-21T17:22:24.523Z,7.20
2019-03-21T17:25:14.389Z,7.20
2019-03-21T17:28:03.598Z,7.30
2019-03-21T17:30:53.157Z,6.73
2019-03-21T17:33:42.525Z,6.90
2019-03-21T17:36:32.408Z,6.07
2019-03-21T17:39:20.938Z,6.60
2019-03-21T17:42:09.724Z,9.17
2019-03-21T17:44:58.937Z,9.67
2019-03-21T17:47:48.603Z,8.60
2019-03-21T17:50:38.762Z,9.03
2019-03-21T17:53:27.702Z,6.30
2019-03-21T17:56:16.891Z,7.23
2019-03-21T17:59:06.156Z,8.17
2019-03-21T18:01:55.269Z,8.17
2019-03-21T18:04:44.965Z,9.43
2019-03-21T18:07:34.220Z,6.20
2019-03-21T18:10:33.884Z,11.67
2019-03-21T18:13:23.139Z,12.80
2019-03-21T18:16:12.394Z,12.00
2019-03-21T18:19:02.170Z,14.07
2019-03-21T18:21:51.894Z,10.33
2019-03-21T18:24:52.991Z,6.97
2019-03-21T18:27:32.806Z,7.63
2019-03-21T18:30:21.561Z,7.50
2019-03-21T18:33:11.050Z,10.07
2019-03-21T18:36:00.714Z,11.60
2019-03-21T18:38:58.809Z,8.80
2019-03-21T18:41:40.952Z,9.55
2019-03-21T18:44:30.867Z,9.60
2019-03-21T18:47:20.944Z,15.50
2019-03-21T18:50:10.878Z,17.13
2019-03-21T18:52:59.836Z,16.73
2019-03-21T18:55:49.325Z,15.00
2019-03-21T18:58:38.340Z,14.20
2019-03-21T19:01:27.836Z,13.33
2019-03-21T19:04:18.190Z,12.68
2019-03-21T19:07:07.543Z,14.55
2019-03-21T19:09:57.478Z,9.50
2019-03-21T19:12:47.141Z,11.08
2019-03-21T19:15:37.027Z,9.98
2019-03-21T19:18:26.053Z,10.93
2019-03-21T19:21:17.989Z,12.53
2019-03-21T19:24:11.516Z,12.03
2019-03-21T19:27:00.480Z,14.03
2019-03-21T19:29:50.415Z,12.90
2019-03-21T19:32:40.511Z,12.90
2019-03-21T19:35:29.663Z,9.15
2019-03-21T19:38:19.667Z,13.00
2019-03-21T19:41:09.013Z,12.70
2019-03-21T19:43:58.516Z,10.18
2019-03-21T19:46:48.143Z,9.60
2019-03-21T19:49:37.610Z,10.40
2019-03-21T19:52:27.387Z,10.58
2019-03-21T19:55:25.879Z,10.45
2019-03-21T19:58:08.879Z,14.43
2019-03-21T20:00:58.148Z,9.58
2019-03-21T20:03:47.944Z,11.43
2019-03-21T20:06:36.844Z,11.40
2019-03-21T20:09:25.699Z,13.00
2019-03-21T20:12:15.330Z,9.48
2019-03-21T20:15:05.927Z,11.28
2019-03-21T20:17:54.897Z,15.20
2019-03-21T20:20:43.991Z,10.25
2019-03-21T20:23:33.449Z,9.20
2019-03-21T20:26:22.947Z,10.35
2019-03-21T20:29:12.468Z,10.65
2019-03-21T20:32:02.658Z,12.50
2019-03-21T20:34:52.181Z,11.33
2019-03-21T20:37:41.596Z,12.95
2019-03-21T20:40:31.075Z,11.40
2019-03-21T20:43:20.953Z,12.45
2019-03-21T20:46:10.497Z,11.30
2019-03-21T20:48:57.833Z,11.40
2019-03-21T20:51:47.206Z,13.90
2019-03-21T20:54:36.704Z,11.40
2019-03-21T20:57:25.914Z,15.53
2019-03-21T21:00:17.882Z,14.33
2019-03-21T21:03:06.839Z,12.88
2019-03-21T21:05:55.989Z,16.48
2019-03-21T21:08:45.557Z,16.40
2019-03-21T21:11:35.212Z,16.42
2019-03-21T21:14:24.232Z,13.22
2019-03-21T21:17:13.280Z,19.70
2019-03-21T21:20:02.408Z,18.98
2019-03-21T21:22:51.899Z,19.30
2019-03-21T21:25:41.548Z,15.75
2019-03-21T21:28:31.066Z,15.30
2019-03-21T21:31:20.339Z,11.37
2019-03-21T21:34:09.841Z,14.90
2019-03-21T21:36:59.314Z,13.70
2019-03-21T21:39:48.260Z,12.98
2019-03-21T21:42:37.809Z,14.35
2019-03-21T21:45:26.849Z,12.85
2019-03-21T21:48:16.239Z,22.40
2019-03-21T21:51:05.671Z,19.40
2019-03-21T21:53:54.904Z,24.90
2019-03-21T21:56:44.427Z,17.75
2019-03-21T21:59:33.446Z,17.07
2019-03-21T22:02:22.586Z,19.73
2019-03-21T22:05:11.334Z,14.45
2019-03-21T22:08:02.014Z,15.15
2019-03-21T22:10:51.075Z,14.55
2019-03-21T22:13:40.017Z,17.98
2019-03-21T22:16:29.247Z,14.50
2019-03-21T22:19:18.619Z,15.40
2019-03-21T22:22:08.155Z,13.32
2019-03-21T22:24:57.840Z,15.00
2019-03-21T22:27:47.354Z,19.12
2019-03-21T22:30:37.073Z,13.40
2019-03-21T22:33:26.744Z,15.00
2019-03-21T22:36:16.597Z,12.78
2019-03-21T22:39:07.959Z,14.55
2019-03-21T22:41:57.409Z,14.40
2019-03-21T22:44:46.540Z,12.53
2019-03-21T22:47:35.938Z,12.90
2019-03-21T22:50:25.373Z,15.80
2019-03-21T22:53:14.840Z,13.72
2019-03-21T22:56:03.958Z,13.55
2019-03-21T22:58:53.728Z,14.30
2019-03-21T23:01:42.566Z,11.70
2019-03-21T23:04:31.972Z,13.72
2019-03-21T23:07:22.112Z,15.53
2019-03-21T23:10:12.417Z,15.08
2019-03-21T23:13:01.528Z,15.83
2019-03-21T23:15:51.118Z,12.70
2019-03-21T23:18:40.750Z,10.38
2019-03-21T23:21:29.754Z,12.85
2019-03-21T23:24:18.911Z,13.28
2019-03-21T23:27:07.983Z,13.13
2019-03-21T23:29:57.052Z,15.23
2019-03-21T23:32:46.700Z,13.93
2019-03-21T23:35:35.798Z,12.30
2019-03-21T23:38:24.542Z,14.05
2019-03-21T23:41:14.052Z,12.82
2019-03-21T23:44:03.667Z,11.03
2019-03-21T23:46:54.389Z,12.27
2019-03-21T23:49:44.125Z,13.20
2019-03-21T23:52:33.819Z,13.03
2019-03-21T23:55:23.518Z,11.03
2019-03-21T23:58:12.651Z,19.73
